createdAt,value
2023-01-18T00:01:41.562Z,95529.60
2023-01-18T00:04:13.559Z,95530.84
2023-01-18T00:06:46.083Z,95528.46
2023-01-18T00:09:18.557Z,95526.08
2023-01-18T00:11:50.782Z,95515.69
2023-01-18T00:14:23.575Z,95516.70
2023-01-18T00:16:55.890Z,95518.61
2023-01-18T00:19:27.480Z,95519.98
2023-01-18T00:21:59.694Z,95517.95
2023-01-18T00:31:59.356Z,95515.59
2023-01-18T00:34:30.268Z,95513.44
2023-01-18T00:37:00.650Z,95514.86
2023-01-18T00:39:31.152Z,95505.11
2023-01-18T00:42:19.192Z,95492.39
2023-01-18T00:44:49.524Z,95514.45
2023-01-18T00:47:19.913Z,95515.35
2023-01-18T00:49:50.310Z,95515.38
2023-01-18T00:52:20.695Z,95517.26
2023-01-18T00:54:51.059Z,95514.04
2023-01-18T00:57:21.414Z,95511.48
2023-01-18T00:59:51.787Z,95510.05
2023-01-18T01:02:22.145Z,95503.14
2023-01-18T01:05:10.223Z,95513.95
2023-01-18T01:07:40.518Z,95518.27
2023-01-18T01:10:12.531Z,95515.89
2023-01-18T01:13:00.572Z,95517.46
2023-01-18T01:15:48.374Z,95514.25
2023-01-18T01:18:37.146Z,95515.15
2023-01-18T01:21:25.631Z,95517.23
2023-01-18T01:24:13.862Z,95517.41
2023-01-18T01:26:44.222Z,95524.61
2023-01-18T01:29:15.231Z,95526.85
2023-01-18T01:31:45.714Z,95529.80
2023-01-18T01:34:16.307Z,95533.22
2023-01-18T01:36:46.712Z,95536.77
2023-01-18T01:39:17.434Z,95543.16
2023-01-18T01:41:47.747Z,95542.44
2023-01-18T01:44:45.634Z,95543.98
2023-01-18T01:47:23.643Z,95544.73
2023-01-18T01:49:57.375Z,95552.70
2023-01-18T01:52:30.866Z,95555.69
2023-01-18T01:55:02.972Z,95561.93
2023-01-18T01:57:35.762Z,95559.32
2023-01-18T02:00:10.326Z,95562.11
2023-01-18T02:02:45.326Z,95562.52
2023-01-18T02:05:17.897Z,95562.80
2023-01-18T02:07:53.347Z,95562.70
2023-01-18T02:10:23.885Z,95565.52
2023-01-18T02:12:55.626Z,95571.95
2023-01-18T02:15:32.309Z,95573.17
2023-01-18T02:18:14.311Z,95574.92
2023-01-18T02:20:56.108Z,95578.05
2023-01-18T02:23:40.265Z,95577.46
2023-01-18T02:26:57.665Z,95580.42
2023-01-18T02:29:36.038Z,95580.39
2023-01-18T02:32:18.340Z,95579.66
2023-01-18T02:34:51.504Z,95589.36
2023-01-18T02:37:28.967Z,95594.55
2023-01-18T02:40:10.317Z,95595.49
2023-01-18T02:42:58.959Z,95600.18
2023-01-18T02:45:51.109Z,95602.19
2023-01-18T02:48:23.727Z,95602.17
2023-01-18T02:50:54.075Z,95604.55
2023-01-18T02:53:24.426Z,95610.85
2023-01-18T02:55:57.461Z,95612.06
2023-01-18T02:58:27.101Z,95618.21
2023-01-18T03:01:00.938Z,95618.31
2023-01-18T03:03:31.322Z,95623.95
2023-01-18T03:06:04.431Z,95629.16
2023-01-18T03:08:38.442Z,95622.80
2023-01-18T03:11:13.395Z,95630.27
2023-01-18T03:13:55.568Z,95629.55
2023-01-18T03:16:30.383Z,95631.08
2023-01-18T03:19:04.221Z,95638.25
2023-01-18T03:21:41.868Z,95639.06
2023-01-18T03:24:12.998Z,95645.13
2023-01-18T03:26:47.006Z,95639.58
2023-01-18T03:29:35.852Z,95639.52
2023-01-18T03:32:28.908Z,95641.38
2023-01-18T03:35:03.208Z,95645.98
2023-01-18T03:37:37.773Z,95651.06
2023-01-18T03:40:11.375Z,95647.16
2023-01-18T03:42:46.132Z,95660.02
2023-01-18T03:45:20.489Z,95668.09
2023-01-18T03:47:51.268Z,95666.66
2023-01-18T03:50:22.938Z,95667.45
2023-01-18T03:52:58.447Z,95669.66
2023-01-18T03:55:35.201Z,95674.95
2023-01-18T03:58:10.161Z,95677.04
2023-01-18T04:00:41.402Z,95684.08
2023-01-18T04:03:11.905Z,95688.73
2023-01-18T04:05:42.540Z,95695.10
2023-01-18T04:08:14.467Z,95691.55
2023-01-18T04:10:45.150Z,95692.52
2023-01-18T04:13:15.489Z,95697.11
2023-01-18T04:15:45.875Z,95699.36
2023-01-18T04:18:16.228Z,95705.34
2023-01-18T04:20:46.860Z,95706.06
2023-01-18T04:23:17.340Z,95708.65
2023-01-18T04:25:50.063Z,95709.57
2023-01-18T04:28:25.318Z,95711.48
2023-01-18T04:30:59.671Z,95713.70
2023-01-18T04:33:30.124Z,95718.13
2023-01-18T04:36:00.600Z,95716.80
2023-01-18T04:38:31.507Z,95722.48
2023-01-18T04:41:17.508Z,95723.52
2023-01-18T04:43:47.873Z,95727.92
2023-01-18T04:46:18.351Z,95728.86
2023-01-18T04:48:52.508Z,95734.74
2023-01-18T04:51:24.013Z,95735.50
2023-01-18T04:53:54.561Z,95729.64
2023-01-18T04:56:24.898Z,95736.17
2023-01-18T04:58:56.250Z,95741.77
2023-01-18T05:01:26.753Z,95742.36
2023-01-18T05:03:57.354Z,95741.96
2023-01-18T05:06:28.100Z,95754.33
2023-01-18T05:08:58.449Z,95759.63
2023-01-18T05:11:28.794Z,95764.90
2023-01-18T05:13:59.247Z,95764.96
2023-01-18T05:16:29.743Z,95767.90
2023-01-18T05:19:00.462Z,95765.74
2023-01-18T05:21:30.791Z,95771.50
2023-01-18T05:24:01.114Z,95779.77
2023-01-18T05:26:31.521Z,95778.04
2023-01-18T05:29:01.869Z,95786.05
2023-01-18T05:31:32.217Z,95790.82
2023-01-18T05:34:02.722Z,95787.77
2023-01-18T05:36:33.062Z,95795.30
2023-01-18T05:39:03.477Z,95798.90
2023-01-18T05:41:33.852Z,95805.55
2023-01-18T05:44:04.523Z,95807.95
2023-01-18T05:46:34.936Z,95810.70
2023-01-18T05:49:05.289Z,95816.78
2023-01-18T05:51:35.786Z,95814.54
2023-01-18T05:54:06.285Z,95819.64
2023-01-18T05:56:37.237Z,95823.58
2023-01-18T05:59:07.562Z,95824.98
2023-01-18T06:01:37.958Z,95829.25
2023-01-18T06:04:08.510Z,95826.29
2023-01-18T06:06:38.909Z,95835.25
2023-01-18T06:09:09.437Z,95834.77
2023-01-18T06:11:39.911Z,95839.56
2023-01-18T06:14:10.772Z,95845.34
2023-01-18T06:16:41.872Z,95848.36
2023-01-18T06:19:12.683Z,95850.48
2023-01-18T06:21:43.027Z,95854.36
2023-01-18T06:24:13.680Z,95856.88
2023-01-18T06:26:44.039Z,95854.67
2023-01-18T06:29:14.342Z,95854.42
2023-01-18T06:31:44.704Z,95860.98
2023-01-18T06:34:15.163Z,95856.00
2023-01-18T06:36:46.007Z,95868.36
2023-01-18T06:39:16.939Z,95873.33
2023-01-18T06:41:47.306Z,95876.44
2023-01-18T06:44:17.911Z,95880.55
2023-01-18T06:46:48.910Z,95882.11
2023-01-18T06:49:19.235Z,95876.65
2023-01-18T06:51:49.575Z,95891.03
2023-01-18T06:54:19.923Z,95891.36
2023-01-18T06:56:50.552Z,95899.09
2023-01-18T06:59:20.863Z,95905.02
2023-01-18T07:01:54.639Z,95907.41
2023-01-18T07:04:25.254Z,95911.14
2023-01-18T07:06:55.939Z,95905.12
2023-01-18T07:09:26.325Z,95922.23
2023-01-18T07:11:56.649Z,95927.70
2023-01-18T07:14:27.068Z,95932.36
2023-01-18T07:16:57.460Z,95934.63
2023-01-18T07:19:27.966Z,95934.69
2023-01-18T07:21:58.969Z,95945.20
2023-01-18T07:24:30.156Z,95951.50
2023-01-18T07:27:00.556Z,95955.26
2023-01-18T07:29:30.929Z,95960.02
2023-01-18T07:32:02.482Z,95962.87
2023-01-18T07:34:32.961Z,95967.39
2023-01-18T07:37:03.204Z,95962.79
2023-01-18T07:39:33.550Z,95968.02
2023-01-18T07:42:04.958Z,95982.88
2023-01-18T07:44:37.935Z,95982.36
2023-01-18T07:47:08.346Z,95987.81
2023-01-18T07:49:38.697Z,95992.58
2023-01-18T07:52:09.197Z,95994.95
2023-01-18T07:54:39.629Z,95995.64
2023-01-18T07:57:09.931Z,96001.45
2023-01-18T07:59:40.375Z,96010.92
2023-01-18T08:02:13.316Z,96010.24
2023-01-18T08:04:45.313Z,96015.52
2023-01-18T08:07:15.586Z,96019.20
2023-01-18T08:09:45.939Z,96020.66
2023-01-18T08:12:18.520Z,96030.41
2023-01-18T08:14:48.891Z,96037.14
2023-01-18T08:17:19.261Z,96040.30
2023-01-18T08:19:49.589Z,96039.58
2023-01-18T08:22:19.934Z,96043.29
2023-01-18T08:24:50.328Z,96044.60
2023-01-18T08:27:20.913Z,96051.02
2023-01-18T08:29:51.390Z,96056.58
2023-01-18T08:32:21.791Z,96053.70
2023-01-18T08:34:52.096Z,96064.96
2023-01-18T08:37:23.668Z,96067.11
2023-01-18T08:39:54.035Z,96075.02
2023-01-18T08:42:24.355Z,96074.58
2023-01-18T08:44:54.716Z,96073.98
2023-01-18T08:47:25.071Z,96074.58
2023-01-18T08:49:55.408Z,96078.86
2023-01-18T08:52:25.756Z,96086.90
2023-01-18T08:54:56.075Z,96088.10
2023-01-18T08:57:27.901Z,96093.05
2023-01-18T08:59:58.258Z,96100.71
2023-01-18T09:02:28.762Z,96105.05
2023-01-18T09:04:59.160Z,96106.86
2023-01-18T09:07:29.433Z,96111.29
2023-01-18T09:09:59.776Z,96118.79
2023-01-18T09:12:30.140Z,96122.70
2023-01-18T09:15:00.495Z,96127.43
2023-01-18T09:17:30.833Z,96131.77
2023-01-18T09:20:01.535Z,96134.56
2023-01-18T09:22:31.854Z,96136.33
2023-01-18T09:25:02.237Z,96140.66
2023-01-18T09:27:32.570Z,96146.88
2023-01-18T09:30:02.947Z,96147.53
2023-01-18T09:32:33.222Z,96153.61
2023-01-18T09:35:03.572Z,96158.57
2023-01-18T09:37:33.917Z,96162.67
2023-01-18T09:40:04.609Z,96163.58
2023-01-18T09:42:39.352Z,96166.45
2023-01-18T09:45:25.840Z,96174.16
2023-01-18T09:48:03.033Z,96184.81
2023-01-18T09:50:35.135Z,96186.52
2023-01-18T09:53:17.115Z,96189.42
2023-01-18T09:55:54.140Z,96189.23
2023-01-18T09:58:39.562Z,96185.82
2023-01-18T10:01:13.053Z,96187.05
2023-01-18T10:03:50.783Z,96189.23
2023-01-18T10:06:25.386Z,96194.35
2023-01-18T10:08:58.500Z,96191.81
2023-01-18T10:11:37.137Z,96195.69
2023-01-18T10:14:13.120Z,96210.52
2023-01-18T10:16:43.496Z,96211.77
2023-01-18T10:19:19.206Z,96215.05
2023-01-18T10:21:55.471Z,96212.34
2023-01-18T10:24:34.923Z,96218.83
2023-01-18T10:27:18.889Z,96222.16
2023-01-18T10:29:59.308Z,96221.98
2023-01-18T10:32:30.850Z,96222.56
2023-01-18T10:35:03.443Z,96220.11
2023-01-18T10:37:40.214Z,96216.70
2023-01-18T10:40:13.817Z,96219.71
2023-01-18T10:42:48.173Z,96225.08
2023-01-18T10:45:21.315Z,96226.59
2023-01-18T10:47:53.264Z,96227.27
2023-01-18T10:50:24.927Z,96229.34
2023-01-18T10:52:55.281Z,96237.31
2023-01-18T10:55:25.788Z,96244.48
2023-01-18T10:57:57.413Z,96243.91
2023-01-18T11:00:33.740Z,96248.93
2023-01-18T11:03:05.326Z,96247.71
2023-01-18T11:05:38.047Z,96252.95
2023-01-18T11:08:21.353Z,96253.84
2023-01-18T11:11:01.195Z,96262.38
2023-01-18T11:13:34.340Z,96263.86
2023-01-18T11:16:13.578Z,96261.23
2023-01-18T11:18:58.611Z,96269.10
2023-01-18T11:21:31.635Z,96267.02
2023-01-18T11:24:00.517Z,96269.56
2023-01-18T11:26:30.981Z,96268.13
2023-01-18T11:29:04.919Z,96266.27
2023-01-18T11:31:45.834Z,96265.63
2023-01-18T11:34:25.834Z,96263.41
2023-01-18T11:36:56.881Z,96264.33
2023-01-18T11:39:33.061Z,96263.05
2023-01-18T11:42:17.755Z,96266.89
2023-01-18T11:44:53.746Z,96265.40
2023-01-18T11:47:40.596Z,96276.61
2023-01-18T11:50:22.721Z,96277.46
2023-01-18T11:52:54.831Z,96278.11
2023-01-18T11:55:31.379Z,96277.44
2023-01-18T11:58:02.531Z,96282.67
2023-01-18T12:00:38.251Z,96279.80
2023-01-18T12:03:22.345Z,96278.88
2023-01-18T12:05:55.952Z,96274.52
2023-01-18T12:08:38.375Z,96285.30
2023-01-18T12:11:20.911Z,96288.52
2023-01-18T12:14:00.024Z,96290.05
2023-01-18T12:16:40.954Z,96285.60
2023-01-18T12:19:32.274Z,96294.86
2023-01-18T12:22:17.075Z,96300.45
2023-01-18T12:24:57.645Z,96304.52
2023-01-18T12:27:35.143Z,96314.22
2023-01-18T12:30:23.387Z,96319.35
2023-01-18T12:33:06.505Z,96325.49
2023-01-18T12:36:08.831Z,96329.48
2023-01-18T12:38:44.577Z,96335.41
2023-01-18T12:41:42.441Z,96340.31
2023-01-18T12:44:32.358Z,96330.43
2023-01-18T12:47:12.205Z,96328.93
2023-01-18T12:49:45.676Z,96333.08
2023-01-18T12:52:19.340Z,96324.65
2023-01-18T12:54:51.443Z,96338.91
2023-01-18T12:57:23.119Z,96350.34
2023-01-18T12:59:57.174Z,96358.41
2023-01-18T13:02:33.278Z,96359.21
2023-01-18T13:05:07.631Z,96361.28
2023-01-18T13:07:43.115Z,96367.02
2023-01-18T13:10:20.000Z,96366.02
2023-01-18T13:12:51.395Z,96359.13
2023-01-18T13:15:29.791Z,96369.41
2023-01-18T13:18:05.717Z,96374.36
2023-01-18T13:20:50.219Z,96376.04
2023-01-18T13:23:30.248Z,96377.29
2023-01-18T13:26:09.051Z,96379.23
2023-01-18T13:28:39.893Z,96379.50
2023-01-18T13:31:10.738Z,96385.87
2023-01-18T13:33:44.781Z,96381.86
2023-01-18T13:36:20.281Z,96385.98
2023-01-18T13:38:54.298Z,96392.06
2023-01-18T13:41:26.521Z,96392.09
2023-01-18T13:44:05.355Z,96391.81
2023-01-18T13:46:39.276Z,96392.17
2023-01-18T13:49:37.731Z,96389.45
2023-01-18T13:52:31.398Z,96398.80
2023-01-18T13:55:05.237Z,96410.61
2023-01-18T13:57:36.816Z,96420.48
2023-01-18T14:00:24.514Z,96412.41
2023-01-18T14:02:57.516Z,96426.67
2023-01-18T14:05:29.446Z,96422.71
2023-01-18T14:08:01.534Z,96418.37
2023-01-18T14:10:36.293Z,96434.33
2023-01-18T14:13:08.507Z,96439.77
2023-01-18T14:15:50.481Z,96445.91
2023-01-18T14:18:24.569Z,96458.48
2023-01-18T14:21:06.772Z,96465.09
2023-01-18T14:24:22.162Z,96469.34
2023-01-18T14:26:55.044Z,96471.88
2023-01-18T14:29:31.914Z,96476.05
2023-01-18T14:32:03.195Z,96478.30
2023-01-18T14:34:41.476Z,96482.73
2023-01-18T14:37:32.258Z,96491.77
2023-01-18T14:40:20.911Z,96495.87
2023-01-18T14:42:53.584Z,96501.53
2023-01-18T14:45:28.898Z,96499.42
2023-01-18T14:48:02.386Z,96516.48
2023-01-18T14:50:37.599Z,96518.25
2023-01-18T14:53:10.581Z,96523.92
2023-01-18T14:55:39.426Z,96526.87
2023-01-18T14:58:16.727Z,96535.59
2023-01-18T15:00:49.978Z,96531.45
2023-01-18T15:03:27.139Z,96544.73
2023-01-18T15:06:01.982Z,96545.64
2023-01-18T15:08:35.200Z,96542.48
2023-01-18T15:11:06.513Z,96544.08
2023-01-18T15:13:47.238Z,96548.54
2023-01-18T15:16:20.183Z,96554.34
2023-01-18T15:18:49.306Z,96557.59
2023-01-18T15:21:25.039Z,96561.88
2023-01-18T15:24:00.978Z,96571.63
2023-01-18T15:26:41.020Z,96568.77
2023-01-18T15:29:17.482Z,96574.46
2023-01-18T15:31:50.629Z,96573.67
2023-01-18T15:34:24.552Z,96578.83
2023-01-18T15:36:55.355Z,96584.31
2023-01-18T15:39:25.974Z,96586.76
2023-01-18T15:41:57.705Z,96593.29
2023-01-18T15:44:36.916Z,96603.38
2023-01-18T15:47:16.684Z,96605.96
2023-01-18T15:49:49.776Z,96613.14
2023-01-18T15:52:40.160Z,96614.20
2023-01-18T15:55:21.314Z,96616.95
2023-01-18T15:58:01.972Z,96622.28
2023-01-18T16:00:37.968Z,96626.23
2023-01-18T16:03:16.921Z,96631.22
2023-01-18T16:05:59.304Z,96637.03
2023-01-18T16:08:29.925Z,96640.79
2023-01-18T16:11:00.271Z,96645.23
2023-01-18T16:13:39.014Z,96651.69
2023-01-18T16:16:21.941Z,96658.81
2023-01-18T16:18:59.863Z,96658.81
2023-01-18T16:21:40.508Z,96659.31
2023-01-18T16:24:25.617Z,96668.30
2023-01-18T16:26:56.651Z,96671.17
2023-01-18T16:29:27.686Z,96676.92
2023-01-18T16:32:19.278Z,96679.13
2023-01-18T16:34:50.260Z,96684.37
2023-01-18T16:37:20.891Z,96686.38
2023-01-18T16:39:54.504Z,96682.08
2023-01-18T16:42:36.951Z,96692.58
2023-01-18T16:45:15.213Z,96700.02
2023-01-18T16:47:45.514Z,96707.10
2023-01-18T16:50:17.272Z,96714.20
2023-01-18T16:52:47.636Z,96716.73
2023-01-18T16:55:19.070Z,96716.03
2023-01-18T16:57:51.562Z,96724.19
2023-01-18T17:00:25.164Z,96723.84
2023-01-18T17:02:55.923Z,96730.95
2023-01-18T17:05:27.536Z,96735.17
2023-01-18T17:07:58.701Z,96735.66
2023-01-18T17:10:32.630Z,96735.46
2023-01-18T17:13:03.514Z,96735.95
2023-01-18T17:15:34.775Z,96742.70
2023-01-18T17:18:08.405Z,96740.48
2023-01-18T17:20:39.237Z,96743.66
2023-01-18T17:23:09.911Z,96747.56
2023-01-18T17:25:41.207Z,96751.30
2023-01-18T17:28:14.048Z,96753.86
2023-01-18T17:30:45.735Z,96758.77
2023-01-18T17:33:19.641Z,96760.79
2023-01-18T17:35:50.732Z,96762.80
2023-01-18T17:38:24.925Z,96768.39
2023-01-18T17:40:56.447Z,96772.42
2023-01-18T17:43:34.843Z,96765.09
2023-01-18T17:46:07.720Z,96770.13
2023-01-18T17:48:36.810Z,96780.66
2023-01-18T17:51:09.135Z,96784.08
2023-01-18T17:53:40.884Z,96786.30
2023-01-18T17:56:13.042Z,96787.64
2023-01-18T17:58:45.881Z,96795.08
2023-01-18T18:01:18.223Z,96792.83
2023-01-18T18:03:50.208Z,96805.20
2023-01-18T18:06:31.040Z,96810.23
2023-01-18T18:09:02.378Z,96816.14
2023-01-18T18:11:33.088Z,96817.95
2023-01-18T18:14:03.713Z,96816.73
2023-01-18T18:16:40.831Z,96817.73
2023-01-18T18:19:14.675Z,96818.89
2023-01-18T18:21:46.144Z,96825.00
2023-01-18T18:24:16.580Z,96828.20
2023-01-18T18:26:47.111Z,96832.58
2023-01-18T18:29:17.844Z,96843.40
2023-01-18T18:31:48.447Z,96846.77
2023-01-18T18:34:19.008Z,96842.53
2023-01-18T18:36:49.619Z,96836.05
2023-01-18T18:39:20.268Z,96844.71
2023-01-18T18:41:50.800Z,96846.05
2023-01-18T18:44:21.333Z,96851.84
2023-01-18T18:46:52.142Z,96853.06
2023-01-18T18:49:22.683Z,96853.92
2023-01-18T18:51:53.305Z,96852.10
2023-01-18T18:54:27.129Z,96856.52
2023-01-18T18:56:57.939Z,96863.13
2023-01-18T18:59:28.968Z,96863.30
2023-01-18T19:01:59.538Z,96865.97
2023-01-18T19:04:31.861Z,96864.55
2023-01-18T19:07:02.629Z,96870.97
2023-01-18T19:09:34.411Z,96871.77
2023-01-18T19:12:05.491Z,96874.30
2023-01-18T19:14:37.699Z,96875.50
2023-01-18T19:17:10.203Z,96872.80
2023-01-18T19:24:01.757Z,96872.56
2023-01-18T19:26:32.516Z,96875.40
2023-01-18T19:29:03.464Z,96878.91
2023-01-18T19:31:35.212Z,96879.90
2023-01-18T19:34:05.707Z,96884.42
2023-01-18T19:36:38.563Z,96880.82
2023-01-18T19:39:17.849Z,96884.51
2023-01-18T19:41:54.937Z,96887.55
2023-01-18T19:44:25.676Z,96888.27
2023-01-18T19:46:56.965Z,96895.06
2023-01-18T19:49:27.841Z,96887.41
2023-01-18T19:51:58.588Z,96900.88
2023-01-18T19:54:29.565Z,96904.24
2023-01-18T19:57:02.521Z,96907.78
2023-01-18T19:59:34.670Z,96910.11
2023-01-18T20:02:05.718Z,96911.92
2023-01-18T20:04:37.900Z,96912.73
2023-01-18T20:07:09.802Z,96915.73
2023-01-18T20:09:43.346Z,96920.29
2023-01-18T20:12:14.495Z,96918.44
2023-01-18T20:14:45.502Z,96927.40
2023-01-18T20:17:16.826Z,96928.27
2023-01-18T20:19:49.404Z,96932.82
2023-01-18T20:22:19.937Z,96932.48
2023-01-18T20:24:51.042Z,96934.29
2023-01-18T20:27:21.585Z,96939.31
2023-01-18T20:29:52.361Z,96935.56
2023-01-18T20:32:23.987Z,96939.05
2023-01-18T20:34:58.245Z,96937.14
2023-01-18T20:37:29.450Z,96938.77
2023-01-18T20:40:01.298Z,96939.80
2023-01-18T20:42:32.169Z,96933.75
2023-01-18T20:45:03.700Z,96942.18
2023-01-18T20:47:34.447Z,96945.48
2023-01-18T20:50:05.669Z,96949.59
2023-01-18T20:52:36.623Z,96953.19
2023-01-18T20:55:08.731Z,96956.59
2023-01-18T20:57:39.309Z,96957.11
2023-01-18T21:00:12.688Z,96959.16
2023-01-18T21:02:45.674Z,96959.60
2023-01-18T21:05:16.896Z,96959.70
2023-01-18T21:07:47.732Z,96965.06
2023-01-18T21:10:21.291Z,96964.46
2023-01-18T21:13:18.413Z,96973.52
2023-01-18T21:15:57.683Z,96978.79
2023-01-18T21:18:32.433Z,96975.41
2023-01-18T21:21:03.690Z,96972.17
2023-01-18T21:23:39.271Z,96984.60
2023-01-18T21:26:12.189Z,96984.52
2023-01-18T21:28:41.671Z,96992.41
2023-01-18T21:31:16.629Z,96983.94
2023-01-18T21:33:47.558Z,96993.39
2023-01-18T21:36:22.808Z,96994.45
2023-01-18T21:38:53.514Z,96992.27
2023-01-18T21:41:41.645Z,96999.21
2023-01-18T21:44:30.653Z,96998.90
2023-01-18T21:47:02.031Z,97001.58
2023-01-18T21:52:58.958Z,97004.23
2023-01-18T21:55:29.476Z,96997.27
2023-01-18T21:58:17.538Z,97000.54
2023-01-18T22:00:52.651Z,97001.64
2023-01-18T22:03:23.346Z,97003.20
2023-01-18T22:05:54.285Z,97007.12
2023-01-18T22:08:24.857Z,97013.77
2023-01-18T22:10:55.731Z,97013.87
2023-01-18T22:13:26.391Z,97017.96
2023-01-18T22:15:57.284Z,97020.30
2023-01-18T22:18:30.027Z,97021.31
2023-01-18T22:21:00.603Z,97020.01
2023-01-18T22:23:31.160Z,97022.79
2023-01-18T22:26:03.275Z,97022.77
2023-01-18T22:28:34.093Z,97036.17
2023-01-18T22:31:08.411Z,97040.19
2023-01-18T22:33:38.881Z,97049.46
2023-01-18T22:36:10.667Z,97058.38
2023-01-18T22:38:41.668Z,97059.35
2023-01-18T22:41:14.292Z,97058.63
2023-01-18T22:43:47.666Z,97056.35
2023-01-18T22:46:22.745Z,97054.12
2023-01-18T22:48:53.527Z,97057.84
2023-01-18T22:51:25.029Z,97058.83
2023-01-18T22:53:56.690Z,97057.98
2023-01-18T22:56:28.348Z,97062.19
2023-01-18T22:59:00.127Z,97064.33
2023-01-18T23:01:32.455Z,97073.21
2023-01-18T23:04:04.967Z,97071.77
2023-01-18T23:06:45.627Z,97065.70
2023-01-18T23:09:20.612Z,97076.48
2023-01-18T23:11:52.972Z,97077.38
2023-01-18T23:14:40.795Z,97074.59
2023-01-18T23:17:30.189Z,97060.49
2023-01-18T23:20:02.726Z,97077.88
2023-01-18T23:22:33.157Z,97078.29
2023-01-18T23:25:20.901Z,97082.48
2023-01-18T23:27:52.717Z,97079.09
2023-01-18T23:30:23.037Z,97080.63
2023-01-18T23:32:53.532Z,97078.94
2023-01-18T23:35:25.084Z,97082.83
2023-01-18T23:37:55.479Z,97082.77
2023-01-18T23:40:43.463Z,97079.16
2023-01-18T23:43:31.120Z,97083.09
2023-01-18T23:46:18.947Z,97083.30
2023-01-18T23:49:06.917Z,97089.05
2023-01-18T23:51:55.061Z,97089.96
2023-01-18T23:54:25.490Z,97095.07
2023-01-18T23:56:57.547Z,97096.43
2023-01-18T23:59:29.634Z,97097.60
